Wilmington, Virginia
Current Conditions -  °F | °C
As of 2:55 PM on Sunday 23 Nov 2014 (Local Time) from KLKU Reporting Station
Clear Clear  
Wind Chill: 57°   Ceiling: Unl
Heat Index: 57°   Visibility: 10mi
Dew Point: 45°   Wind: 3mph
Humidity: 63%   Direction: 180°S
Pressure: 30.07"   Gusts: NA
Location:  37.8582°N, 78.2803°W
Report Text: KLKU 231955Z AUTO 18003KT 10SM CLR 14/07 A3007 RMK AO2
Loading
Personal Weather Stations






























Interactive Weather Map New forecast layout! Learn more

10-Day Weather Forecast

Advertisements
Track Severe Weather on mobile